sensor_id;sensor_type;location;lat;lon;timestamp;P1;durP1;ratioP1;P2;durP2;ratioP2
62102;SDS011;48077;48.104;11.702;2023-04-08T00:00:45;63.70;;;58.33;;
62102;SDS011;48077;48.104;11.702;2023-04-08T00:07:29;86.80;;;79.15;;
62102;SDS011;48077;48.104;11.702;2023-04-08T00:09:53;77.75;;;71.13;;
62102;SDS011;48077;48.104;11.702;2023-04-08T00:12:16;74.40;;;68.05;;
62102;SDS011;48077;48.104;11.702;2023-04-08T00:14:40;72.47;;;66.22;;
62102;SDS011;48077;48.104;11.702;2023-04-08T00:17:03;73.45;;;66.93;;
62102;SDS011;48077;48.104;11.702;2023-04-08T00:19:27;73.80;;;67.28;;
62102;SDS011;48077;48.104;11.702;2023-04-08T00:21:50;69.65;;;63.55;;
62102;SDS011;48077;48.104;11.702;2023-04-08T00:24:13;70.38;;;64.15;;
62102;SDS011;48077;48.104;11.702;2023-04-08T00:26:37;69.15;;;63.30;;
62102;SDS011;48077;48.104;11.702;2023-04-08T00:29:00;68.40;;;62.60;;
62102;SDS011;48077;48.104;11.702;2023-04-08T00:31:24;69.15;;;63.15;;
62102;SDS011;48077;48.104;11.702;2023-04-08T00:33:47;68.57;;;62.65;;
62102;SDS011;48077;48.104;11.702;2023-04-08T00:36:10;67.18;;;61.42;;
62102;SDS011;48077;48.104;11.702;2023-04-08T00:38:34;67.97;;;61.95;;
62102;SDS011;48077;48.104;11.702;2023-04-08T00:40:57;68.38;;;62.63;;
62102;SDS011;48077;48.104;11.702;2023-04-08T00:43:21;67.85;;;62.05;;
62102;SDS011;48077;48.104;11.702;2023-04-08T00:45:44;69.30;;;63.42;;
62102;SDS011;48077;48.104;11.702;2023-04-08T00:48:08;67.03;;;61.33;;
62102;SDS011;48077;48.104;11.702;2023-04-08T00:50:31;67.30;;;61.58;;
62102;SDS011;48077;48.104;11.702;2023-04-08T00:52:58;64.82;;;59.50;;
62102;SDS011;48077;48.104;11.702;2023-04-08T00:55:21;66.40;;;61.03;;
62102;SDS011;48077;48.104;11.702;2023-04-08T00:57:45;68.13;;;62.42;;
62102;SDS011;48077;48.104;11.702;2023-04-08T01:00:09;69.50;;;63.28;;
62102;SDS011;48077;48.104;11.702;2023-04-08T01:12:47;76.32;;;69.90;;
62102;SDS011;48077;48.104;11.702;2023-04-08T01:15:24;73.93;;;67.50;;
62102;SDS011;48077;48.104;11.702;2023-04-08T01:17:50;70.00;;;63.83;;
62102;SDS011;48077;48.104;11.702;2023-04-08T01:20:16;68.72;;;62.85;;
62102;SDS011;48077;48.104;11.702;2023-04-08T01:25:17;69.30;;;63.45;;
62102;SDS011;48077;48.104;11.702;2023-04-08T01:27:46;70.70;;;64.30;;
62102;SDS011;48077;48.104;11.702;2023-04-08T01:30:13;70.03;;;64.07;;
62102;SDS011;48077;48.104;11.702;2023-04-08T01:32:38;66.65;;;61.00;;
62102;SDS011;48077;48.104;11.702;2023-04-08T01:35:03;65.63;;;59.97;;
62102;SDS011;48077;48.104;11.702;2023-04-08T01:37:28;66.82;;;61.20;;
62102;SDS011;48077;48.104;11.702;2023-04-08T01:39:53;65.57;;;60.05;;
62102;SDS011;48077;48.104;11.702;2023-04-08T01:42:17;67.38;;;61.33;;
62102;SDS011;48077;48.104;11.702;2023-04-08T01:44:44;67.18;;;61.05;;
62102;SDS011;48077;48.104;11.702;2023-04-08T01:47:09;70.25;;;64.10;;
62102;SDS011;48077;48.104;11.702;2023-04-08T01:49:35;66.97;;;61.38;;
62102;SDS011;48077;48.104;11.702;2023-04-08T01:52:00;66.00;;;60.58;;
62102;SDS011;48077;48.104;11.702;2023-04-08T01:54:27;65.45;;;59.88;;
62102;SDS011;48077;48.104;11.702;2023-04-08T01:56:50;65.75;;;60.45;;
62102;SDS011;48077;48.104;11.702;2023-04-08T01:59:18;68.10;;;62.27;;
62102;SDS011;48077;48.104;11.702;2023-04-08T02:01:43;65.68;;;60.13;;
62102;SDS011;48077;48.104;11.702;2023-04-08T02:04:08;67.20;;;61.50;;
62102;SDS011;48077;48.104;11.702;2023-04-08T02:06:32;65.47;;;60.08;;
62102;SDS011;48077;48.104;11.702;2023-04-08T02:08:56;66.35;;;60.78;;
62102;SDS011;48077;48.104;11.702;2023-04-08T02:11:19;65.13;;;59.58;;
62102;SDS011;48077;48.104;11.702;2023-04-08T02:13:43;62.55;;;57.40;;
62102;SDS011;48077;48.104;11.702;2023-04-08T02:16:12;66.07;;;60.58;;
62102;SDS011;48077;48.104;11.702;2023-04-08T02:18:42;68.32;;;62.60;;
62102;SDS011;48077;48.104;11.702;2023-04-08T02:21:14;64.90;;;59.50;;
62102;SDS011;48077;48.104;11.702;2023-04-08T02:23:38;65.78;;;60.20;;
62102;SDS011;48077;48.104;11.702;2023-04-08T02:26:03;64.78;;;59.40;;
62102;SDS011;48077;48.104;11.702;2023-04-08T02:28:34;65.00;;;59.55;;
62102;SDS011;48077;48.104;11.702;2023-04-08T02:30:58;66.43;;;60.70;;
62102;SDS011;48077;48.104;11.702;2023-04-08T02:33:22;66.28;;;60.75;;
62102;SDS011;48077;48.104;11.702;2023-04-08T02:35:49;64.25;;;58.88;;
62102;SDS011;48077;48.104;11.702;2023-04-08T02:38:16;67.68;;;61.88;;
62102;SDS011;48077;48.104;11.702;2023-04-08T02:40:40;66.75;;;61.05;;
62102;SDS011;48077;48.104;11.702;2023-04-08T02:43:03;68.00;;;62.05;;
62102;SDS011;48077;48.104;11.702;2023-04-08T02:45:31;66.70;;;61.05;;
62102;SDS011;48077;48.104;11.702;2023-04-08T02:47:57;67.03;;;61.50;;
62102;SDS011;48077;48.104;11.702;2023-04-08T02:50:22;67.00;;;61.33;;
62102;SDS011;48077;48.104;11.702;2023-04-08T02:52:46;66.60;;;60.88;;
62102;SDS011;48077;48.104;11.702;2023-04-08T02:55:09;67.55;;;61.70;;
62102;SDS011;48077;48.104;11.702;2023-04-08T02:57:33;65.65;;;60.22;;
62102;SDS011;48077;48.104;11.702;2023-04-08T02:59:56;66.15;;;60.35;;
62102;SDS011;48077;48.104;11.702;2023-04-08T03:02:20;67.68;;;61.92;;
62102;SDS011;48077;48.104;11.702;2023-04-08T03:04:43;68.93;;;62.83;;
62102;SDS011;48077;48.104;11.702;2023-04-08T03:07:07;66.78;;;61.08;;
62102;SDS011;48077;48.104;11.702;2023-04-08T03:09:30;67.35;;;61.70;;
62102;SDS011;48077;48.104;11.702;2023-04-08T03:11:53;66.65;;;60.80;;
62102;SDS011;48077;48.104;11.702;2023-04-08T03:14:17;69.55;;;63.65;;
62102;SDS011;48077;48.104;11.702;2023-04-08T03:16:40;66.68;;;61.10;;
62102;SDS011;48077;48.104;11.702;2023-04-08T03:19:04;65.80;;;60.10;;
62102;SDS011;48077;48.104;11.702;2023-04-08T03:21:29;67.13;;;61.22;;
62102;SDS011;48077;48.104;11.702;2023-04-08T03:23:54;66.57;;;60.88;;
62102;SDS011;48077;48.104;11.702;2023-04-08T03:26:17;69.78;;;63.63;;
62102;SDS011;48077;48.104;11.702;2023-04-08T03:28:41;68.25;;;62.50;;
62102;SDS011;48077;48.104;11.702;2023-04-08T03:31:04;67.30;;;61.72;;
62102;SDS011;48077;48.104;11.702;2023-04-08T03:33:28;67.68;;;62.05;;
62102;SDS011;48077;48.104;11.702;2023-04-08T03:35:52;70.60;;;64.40;;
62102;SDS011;48077;48.104;11.702;2023-04-08T03:38:16;66.18;;;60.22;;
62102;SDS011;48077;48.104;11.702;2023-04-08T03:40:39;67.93;;;62.05;;
62102;SDS011;48077;48.104;11.702;2023-04-08T03:43:02;68.50;;;62.67;;
62102;SDS011;48077;48.104;11.702;2023-04-08T03:45:28;68.75;;;62.78;;
62102;SDS011;48077;48.104;11.702;2023-04-08T03:47:51;67.63;;;61.75;;
62102;SDS011;48077;48.104;11.702;2023-04-08T03:50:15;66.70;;;61.10;;
62102;SDS011;48077;48.104;11.702;2023-04-08T03:52:38;66.65;;;61.03;;
62102;SDS011;48077;48.104;11.702;2023-04-08T03:55:01;67.18;;;61.60;;
62102;SDS011;48077;48.104;11.702;2023-04-08T03:57:25;64.90;;;59.47;;
62102;SDS011;48077;48.104;11.702;2023-04-08T03:59:51;66.22;;;60.47;;
62102;SDS011;48077;48.104;11.702;2023-04-08T04:02:14;68.85;;;62.80;;
62102;SDS011;48077;48.104;11.702;2023-04-08T04:04:37;65.07;;;59.58;;
62102;SDS011;48077;48.104;11.702;2023-04-08T04:07:01;68.78;;;63.13;;
62102;SDS011;48077;48.104;11.702;2023-04-08T04:09:26;68.25;;;62.38;;
62102;SDS011;48077;48.104;11.702;2023-04-08T04:11:49;65.20;;;59.58;;
62102;SDS011;48077;48.104;11.702;2023-04-08T04:14:12;62.05;;;56.80;;
62102;SDS011;48077;48.104;11.702;2023-04-08T04:16:36;65.82;;;60.42;;
62102;SDS011;48077;48.104;11.702;2023-04-08T04:18:59;66.60;;;60.80;;
62102;SDS011;48077;48.104;11.702;2023-04-08T04:21:23;67.57;;;61.80;;
62102;SDS011;48077;48.104;11.702;2023-04-08T04:23:46;68.00;;;62.10;;
62102;SDS011;48077;48.104;11.702;2023-04-08T04:26:09;67.50;;;61.45;;
62102;SDS011;48077;48.104;11.702;2023-04-08T04:28:33;65.07;;;59.65;;
62102;SDS011;48077;48.104;11.702;2023-04-08T04:30:56;66.80;;;61.03;;
62102;SDS011;48077;48.104;11.702;2023-04-08T04:33:20;64.88;;;59.45;;
62102;SDS011;48077;48.104;11.702;2023-04-08T04:35:43;66.72;;;61.30;;
62102;SDS011;48077;48.104;11.702;2023-04-08T04:38:07;65.68;;;59.65;;
62102;SDS011;48077;48.104;11.702;2023-04-08T04:40:34;67.70;;;61.80;;
62102;SDS011;48077;48.104;11.702;2023-04-08T04:42:57;66.35;;;60.63;;
62102;SDS011;48077;48.104;11.702;2023-04-08T04:45:21;66.35;;;60.60;;
62102;SDS011;48077;48.104;11.702;2023-04-08T04:47:44;65.25;;;59.55;;
62102;SDS011;48077;48.104;11.702;2023-04-08T04:50:07;67.50;;;61.88;;
62102;SDS011;48077;48.104;11.702;2023-04-08T04:52:31;63.60;;;58.28;;
62102;SDS011;48077;48.104;11.702;2023-04-08T04:54:55;65.35;;;59.63;;
62102;SDS011;48077;48.104;11.702;2023-04-08T04:57:19;65.20;;;59.60;;
62102;SDS011;48077;48.104;11.702;2023-04-08T04:59:45;65.55;;;59.88;;
62102;SDS011;48077;48.104;11.702;2023-04-08T05:02:09;65.68;;;59.97;;
62102;SDS011;48077;48.104;11.702;2023-04-08T05:04:32;68.40;;;62.45;;
62102;SDS011;48077;48.104;11.702;2023-04-08T05:06:57;67.97;;;61.95;;
62102;SDS011;48077;48.104;11.702;2023-04-08T05:09:21;66.78;;;60.97;;
62102;SDS011;48077;48.104;11.702;2023-04-08T05:11:47;64.97;;;59.22;;
62102;SDS011;48077;48.104;11.702;2023-04-08T05:14:10;64.10;;;58.53;;
62102;SDS011;48077;48.104;11.702;2023-04-08T05:16:34;64.22;;;58.78;;
62102;SDS011;48077;48.104;11.702;2023-04-08T05:18:58;64.85;;;59.30;;
62102;SDS011;48077;48.104;11.702;2023-04-08T05:21:21;66.28;;;60.72;;
62102;SDS011;48077;48.104;11.702;2023-04-08T05:23:45;66.40;;;60.55;;
62102;SDS011;48077;48.104;11.702;2023-04-08T05:26:09;66.25;;;60.47;;
62102;SDS011;48077;48.104;11.702;2023-04-08T05:28:32;67.90;;;61.63;;
62102;SDS011;48077;48.104;11.702;2023-04-08T05:30:55;65.03;;;59.03;;
62102;SDS011;48077;48.104;11.702;2023-04-08T05:33:19;64.80;;;58.95;;
62102;SDS011;48077;48.104;11.702;2023-04-08T05:35:42;62.00;;;56.30;;
62102;SDS011;48077;48.104;11.702;2023-04-08T05:38:06;63.90;;;57.88;;
62102;SDS011;48077;48.104;11.702;2023-04-08T05:40:29;64.88;;;59.00;;
62102;SDS011;48077;48.104;11.702;2023-04-08T05:42:53;62.00;;;56.38;;
62102;SDS011;48077;48.104;11.702;2023-04-08T05:45:16;60.67;;;55.30;;
62102;SDS011;48077;48.104;11.702;2023-04-08T05:47:39;63.20;;;57.30;;
62102;SDS011;48077;48.104;11.702;2023-04-08T05:50:03;59.40;;;54.13;;
62102;SDS011;48077;48.104;11.702;2023-04-08T05:52:27;60.92;;;55.67;;
62102;SDS011;48077;48.104;11.702;2023-04-08T05:54:50;59.60;;;54.28;;
62102;SDS011;48077;48.104;11.702;2023-04-08T05:57:14;61.53;;;55.92;;
62102;SDS011;48077;48.104;11.702;2023-04-08T05:59:38;58.53;;;53.38;;
62102;SDS011;48077;48.104;11.702;2023-04-08T06:02:04;60.63;;;55.20;;
62102;SDS011;48077;48.104;11.702;2023-04-08T06:04:28;61.17;;;55.35;;
62102;SDS011;48077;48.104;11.702;2023-04-08T06:06:52;59.03;;;53.63;;
62102;SDS011;48077;48.104;11.702;2023-04-08T06:09:15;57.47;;;52.42;;
62102;SDS011;48077;48.104;11.702;2023-04-08T06:11:38;56.72;;;51.63;;
62102;SDS011;48077;48.104;11.702;2023-04-08T06:14:02;57.15;;;52.13;;
62102;SDS011;48077;48.104;11.702;2023-04-08T06:16:25;57.90;;;52.95;;
62102;SDS011;48077;48.104;11.702;2023-04-08T06:18:48;57.28;;;51.85;;
62102;SDS011;48077;48.104;11.702;2023-04-08T06:21:12;56.35;;;51.28;;
62102;SDS011;48077;48.104;11.702;2023-04-08T06:23:35;55.15;;;50.20;;
62102;SDS011;48077;48.104;11.702;2023-04-08T06:25:59;56.05;;;50.83;;
62102;SDS011;48077;48.104;11.702;2023-04-08T06:28:22;55.08;;;49.83;;
62102;SDS011;48077;48.104;11.702;2023-04-08T06:30:45;51.50;;;46.78;;
62102;SDS011;48077;48.104;11.702;2023-04-08T06:33:09;55.28;;;50.03;;
62102;SDS011;48077;48.104;11.702;2023-04-08T06:35:32;53.53;;;48.70;;
62102;SDS011;48077;48.104;11.702;2023-04-08T06:37:55;55.78;;;50.25;;
62102;SDS011;48077;48.104;11.702;2023-04-08T06:40:19;52.05;;;47.20;;
62102;SDS011;48077;48.104;11.702;2023-04-08T06:42:42;51.80;;;47.00;;
62102;SDS011;48077;48.104;11.702;2023-04-08T06:45:06;52.28;;;47.40;;
62102;SDS011;48077;48.104;11.702;2023-04-08T06:47:30;52.35;;;47.38;;
62102;SDS011;48077;48.104;11.702;2023-04-08T06:49:53;51.40;;;46.75;;
62102;SDS011;48077;48.104;11.702;2023-04-08T06:52:17;51.03;;;46.33;;
62102;SDS011;48077;48.104;11.702;2023-04-08T06:54:40;50.53;;;45.85;;
62102;SDS011;48077;48.104;11.702;2023-04-08T06:57:03;53.15;;;48.17;;
62102;SDS011;48077;48.104;11.702;2023-04-08T06:59:27;51.80;;;47.03;;
62102;SDS011;48077;48.104;11.702;2023-04-08T07:01:50;51.22;;;46.35;;
62102;SDS011;48077;48.104;11.702;2023-04-08T07:04:13;51.25;;;46.50;;
62102;SDS011;48077;48.104;11.702;2023-04-08T07:06:37;51.45;;;46.58;;
62102;SDS011;48077;48.104;11.702;2023-04-08T07:09:00;49.97;;;45.38;;
62102;SDS011;48077;48.104;11.702;2023-04-08T07:11:23;52.92;;;48.03;;
62102;SDS011;48077;48.104;11.702;2023-04-08T07:13:47;50.55;;;45.70;;
62102;SDS011;48077;48.104;11.702;2023-04-08T07:16:11;48.40;;;43.95;;
62102;SDS011;48077;48.104;11.702;2023-04-08T07:18:34;46.60;;;42.33;;
62102;SDS011;48077;48.104;11.702;2023-04-08T07:20:58;47.75;;;43.47;;
62102;SDS011;48077;48.104;11.702;2023-04-08T07:23:23;49.60;;;44.90;;
62102;SDS011;48077;48.104;11.702;2023-04-08T07:25:46;45.67;;;41.38;;
62102;SDS011;48077;48.104;11.702;2023-04-08T07:28:10;49.95;;;45.35;;
62102;SDS011;48077;48.104;11.702;2023-04-08T07:30:33;44.92;;;40.97;;
62102;SDS011;48077;48.104;11.702;2023-04-08T07:32:56;44.25;;;40.50;;
62102;SDS011;48077;48.104;11.702;2023-04-08T07:35:20;47.53;;;42.05;;
62102;SDS011;48077;48.104;11.702;2023-04-08T07:37:46;46.40;;;41.90;;
62102;SDS011;48077;48.104;11.702;2023-04-08T07:40:10;46.90;;;42.33;;
62102;SDS011;48077;48.104;11.702;2023-04-08T07:42:34;46.78;;;42.55;;
62102;SDS011;48077;48.104;11.702;2023-04-08T07:44:57;48.42;;;43.55;;
62102;SDS011;48077;48.104;11.702;2023-04-08T07:47:21;50.70;;;45.53;;
62102;SDS011;48077;48.104;11.702;2023-04-08T07:49:47;46.50;;;42.13;;
62102;SDS011;48077;48.104;11.702;2023-04-08T07:52:10;49.53;;;44.83;;
62102;SDS011;48077;48.104;11.702;2023-04-08T07:54:34;47.00;;;42.50;;
62102;SDS011;48077;48.104;11.702;2023-04-08T07:56:57;48.30;;;43.95;;
62102;SDS011;48077;48.104;11.702;2023-04-08T07:59:21;46.75;;;42.63;;
62102;SDS011;48077;48.104;11.702;2023-04-08T08:01:47;46.08;;;41.85;;
62102;SDS011;48077;48.104;11.702;2023-04-08T08:04:11;50.08;;;45.45;;
62102;SDS011;48077;48.104;11.702;2023-04-08T08:06:37;48.83;;;44.35;;
62102;SDS011;48077;48.104;11.702;2023-04-08T08:09:00;49.75;;;45.03;;
62102;SDS011;48077;48.104;11.702;2023-04-08T08:11:24;52.50;;;47.67;;
62102;SDS011;48077;48.104;11.702;2023-04-08T08:13:49;50.70;;;46.13;;
62102;SDS011;48077;48.104;11.702;2023-04-08T08:16:12;55.38;;;50.05;;
62102;SDS011;48077;48.104;11.702;2023-04-08T08:18:36;50.90;;;46.40;;
62102;SDS011;48077;48.104;11.702;2023-04-08T08:21:01;52.90;;;47.97;;
62102;SDS011;48077;48.104;11.702;2023-04-08T08:23:24;53.95;;;48.55;;
62102;SDS011;48077;48.104;11.702;2023-04-08T08:25:49;56.15;;;50.63;;
62102;SDS011;48077;48.104;11.702;2023-04-08T08:28:21;56.45;;;51.10;;
62102;SDS011;48077;48.104;11.702;2023-04-08T08:30:45;53.03;;;48.08;;
62102;SDS011;48077;48.104;11.702;2023-04-08T08:33:08;51.55;;;46.92;;
62102;SDS011;48077;48.104;11.702;2023-04-08T08:35:31;54.00;;;49.40;;
62102;SDS011;48077;48.104;11.702;2023-04-08T08:37:55;55.33;;;50.22;;
62102;SDS011;48077;48.104;11.702;2023-04-08T08:40:20;56.00;;;50.40;;
62102;SDS011;48077;48.104;11.702;2023-04-08T08:42:50;54.95;;;49.97;;
62102;SDS011;48077;48.104;11.702;2023-04-08T08:45:14;57.05;;;51.45;;
62102;SDS011;48077;48.104;11.702;2023-04-08T08:47:38;58.67;;;53.15;;
62102;SDS011;48077;48.104;11.702;2023-04-08T08:50:01;57.22;;;52.03;;
62102;SDS011;48077;48.104;11.702;2023-04-08T08:52:25;57.78;;;52.47;;
62102;SDS011;48077;48.104;11.702;2023-04-08T08:54:55;56.08;;;51.17;;
62102;SDS011;48077;48.104;11.702;2023-04-08T08:57:19;59.67;;;54.47;;
62102;SDS011;48077;48.104;11.702;2023-04-08T08:59:46;57.35;;;52.33;;
62102;SDS011;48077;48.104;11.702;2023-04-08T09:02:22;59.40;;;53.95;;
62102;SDS011;48077;48.104;11.702;2023-04-08T09:05:00;61.33;;;55.28;;
62102;SDS011;48077;48.104;11.702;2023-04-08T09:07:27;66.35;;;60.42;;
62102;SDS011;48077;48.104;11.702;2023-04-08T09:09:54;57.15;;;52.05;;
62102;SDS011;48077;48.104;11.702;2023-04-08T09:12:18;58.63;;;53.03;;
62102;SDS011;48077;48.104;11.702;2023-04-08T09:14:42;58.05;;;52.38;;
62102;SDS011;48077;48.104;11.702;2023-04-08T09:17:06;65.60;;;57.30;;
62102;SDS011;48077;48.104;11.702;2023-04-08T09:19:29;62.78;;;56.35;;
62102;SDS011;48077;48.104;11.702;2023-04-08T09:22:08;62.47;;;56.20;;
62102;SDS011;48077;48.104;11.702;2023-04-08T09:24:33;61.90;;;56.30;;
62102;SDS011;48077;48.104;11.702;2023-04-08T09:26:56;63.60;;;57.60;;
62102;SDS011;48077;48.104;11.702;2023-04-08T09:29:20;62.47;;;56.85;;
62102;SDS011;48077;48.104;11.702;2023-04-08T09:31:45;58.47;;;53.28;;
62102;SDS011;48077;48.104;11.702;2023-04-08T09:34:16;60.10;;;54.80;;
62102;SDS011;48077;48.104;11.702;2023-04-08T09:36:41;58.42;;;53.28;;
62102;SDS011;48077;48.104;11.702;2023-04-08T09:39:06;57.10;;;52.03;;
62102;SDS011;48077;48.104;11.702;2023-04-08T09:41:32;56.88;;;51.80;;
62102;SDS011;48077;48.104;11.702;2023-04-08T09:43:57;56.80;;;51.75;;
62102;SDS011;48077;48.104;11.702;2023-04-08T09:46:26;57.10;;;51.45;;
62102;SDS011;48077;48.104;11.702;2023-04-08T09:49:04;57.13;;;52.08;;
62102;SDS011;48077;48.104;11.702;2023-04-08T09:51:31;56.00;;;50.92;;
62102;SDS011;48077;48.104;11.702;2023-04-08T09:53:58;56.13;;;51.22;;
62102;SDS011;48077;48.104;11.702;2023-04-08T09:56:24;56.63;;;51.47;;
62102;SDS011;48077;48.104;11.702;2023-04-08T09:58:59;55.00;;;50.20;;
62102;SDS011;48077;48.104;11.702;2023-04-08T10:01:40;56.15;;;51.33;;
62102;SDS011;48077;48.104;11.702;2023-04-08T10:04:11;59.08;;;54.08;;
62102;SDS011;48077;48.104;11.702;2023-04-08T10:06:37;56.20;;;51.42;;
62102;SDS011;48077;48.104;11.702;2023-04-08T10:09:03;57.33;;;52.10;;
62102;SDS011;48077;48.104;11.702;2023-04-08T10:11:29;54.00;;;49.28;;
62102;SDS011;48077;48.104;11.702;2023-04-08T10:13:55;53.00;;;48.40;;
62102;SDS011;48077;48.104;11.702;2023-04-08T10:16:19;53.50;;;48.60;;
62102;SDS011;48077;48.104;11.702;2023-04-08T10:18:49;53.08;;;48.38;;
62102;SDS011;48077;48.104;11.702;2023-04-08T10:24:10;54.40;;;49.53;;
62102;SDS011;48077;48.104;11.702;2023-04-08T10:26:35;52.60;;;47.80;;
62102;SDS011;48077;48.104;11.702;2023-04-08T10:31:41;49.25;;;44.72;;
62102;SDS011;48077;48.104;11.702;2023-04-08T10:34:17;45.92;;;41.85;;
62102;SDS011;48077;48.104;11.702;2023-04-08T10:36:41;46.35;;;42.15;;
62102;SDS011;48077;48.104;11.702;2023-04-08T10:39:04;43.83;;;39.72;;
62102;SDS011;48077;48.104;11.702;2023-04-08T10:41:28;45.05;;;41.08;;
62102;SDS011;48077;48.104;11.702;2023-04-08T10:43:51;42.55;;;38.47;;
62102;SDS011;48077;48.104;11.702;2023-04-08T10:46:14;44.00;;;39.90;;
62102;SDS011;48077;48.104;11.702;2023-04-08T10:48:39;41.85;;;38.05;;
62102;SDS011;48077;48.104;11.702;2023-04-08T10:51:03;40.10;;;36.53;;
62102;SDS011;48077;48.104;11.702;2023-04-08T10:53:33;41.13;;;37.38;;
62102;SDS011;48077;48.104;11.702;2023-04-08T10:58:30;42.55;;;38.72;;
62102;SDS011;48077;48.104;11.702;2023-04-08T11:00:54;44.75;;;40.25;;
62102;SDS011;48077;48.104;11.702;2023-04-08T11:03:18;41.38;;;37.15;;
62102;SDS011;48077;48.104;11.702;2023-04-08T11:05:43;42.63;;;38.53;;
62102;SDS011;48077;48.104;11.702;2023-04-08T11:08:07;43.67;;;39.65;;
62102;SDS011;48077;48.104;11.702;2023-04-08T11:10:33;39.92;;;36.28;;
62102;SDS011;48077;48.104;11.702;2023-04-08T11:12:59;43.45;;;39.42;;
62102;SDS011;48077;48.104;11.702;2023-04-08T11:15:23;43.33;;;39.33;;
62102;SDS011;48077;48.104;11.702;2023-04-08T11:17:49;42.22;;;38.35;;
62102;SDS011;48077;48.104;11.702;2023-04-08T11:20:13;47.25;;;41.95;;
62102;SDS011;48077;48.104;11.702;2023-04-08T11:22:36;45.72;;;41.58;;
62102;SDS011;48077;48.104;11.702;2023-04-08T11:25:01;47.05;;;42.85;;
62102;SDS011;48077;48.104;11.702;2023-04-08T11:27:25;45.05;;;40.83;;
62102;SDS011;48077;48.104;11.702;2023-04-08T11:29:49;45.28;;;41.25;;
62102;SDS011;48077;48.104;11.702;2023-04-08T11:32:12;47.08;;;42.85;;
62102;SDS011;48077;48.104;11.702;2023-04-08T11:34:38;46.00;;;41.85;;
62102;SDS011;48077;48.104;11.702;2023-04-08T11:37:02;45.88;;;41.63;;
62102;SDS011;48077;48.104;11.702;2023-04-08T11:39:25;46.83;;;42.83;;
62102;SDS011;48077;48.104;11.702;2023-04-08T11:41:49;45.83;;;41.97;;
62102;SDS011;48077;48.104;11.702;2023-04-08T11:44:12;46.30;;;42.05;;
62102;SDS011;48077;48.104;11.702;2023-04-08T11:46:35;45.88;;;41.72;;
62102;SDS011;48077;48.104;11.702;2023-04-08T11:49:06;49.92;;;45.35;;
62102;SDS011;48077;48.104;11.702;2023-04-08T11:51:31;51.25;;;46.50;;
62102;SDS011;48077;48.104;11.702;2023-04-08T11:53:56;51.33;;;46.75;;
62102;SDS011;48077;48.104;11.702;2023-04-08T11:56:20;51.42;;;46.42;;
62102;SDS011;48077;48.104;11.702;2023-04-08T11:58:48;51.40;;;46.47;;
62102;SDS011;48077;48.104;11.702;2023-04-08T12:01:11;55.25;;;49.45;;
62102;SDS011;48077;48.104;11.702;2023-04-08T12:03:35;52.65;;;48.03;;
62102;SDS011;48077;48.104;11.702;2023-04-08T12:05:59;52.15;;;47.53;;
62102;SDS011;48077;48.104;11.702;2023-04-08T12:08:22;55.33;;;50.25;;
62102;SDS011;48077;48.104;11.702;2023-04-08T12:10:46;53.85;;;48.88;;
62102;SDS011;48077;48.104;11.702;2023-04-08T12:13:09;57.00;;;51.85;;
62102;SDS011;48077;48.104;11.702;2023-04-08T12:15:32;56.45;;;51.70;;
62102;SDS011;48077;48.104;11.702;2023-04-08T12:17:56;53.65;;;48.72;;
62102;SDS011;48077;48.104;11.702;2023-04-08T12:20:19;57.03;;;52.03;;
62102;SDS011;48077;48.104;11.702;2023-04-08T12:22:42;55.75;;;50.60;;
62102;SDS011;48077;48.104;11.702;2023-04-08T12:25:06;53.38;;;48.85;;
62102;SDS011;48077;48.104;11.702;2023-04-08T12:27:29;52.83;;;48.17;;
62102;SDS011;48077;48.104;11.702;2023-04-08T12:29:55;53.90;;;49.22;;
62102;SDS011;48077;48.104;11.702;2023-04-08T12:32:19;52.05;;;47.40;;
62102;SDS011;48077;48.104;11.702;2023-04-08T12:34:43;51.17;;;46.63;;
62102;SDS011;48077;48.104;11.702;2023-04-08T12:37:09;51.17;;;46.42;;
62102;SDS011;48077;48.104;11.702;2023-04-08T12:39:33;49.10;;;45.00;;
62102;SDS011;48077;48.104;11.702;2023-04-08T12:41:56;53.80;;;49.15;;
62102;SDS011;48077;48.104;11.702;2023-04-08T12:44:20;52.30;;;47.80;;
62102;SDS011;48077;48.104;11.702;2023-04-08T12:46:43;54.92;;;50.15;;
62102;SDS011;48077;48.104;11.702;2023-04-08T12:49:07;54.22;;;49.28;;
62102;SDS011;48077;48.104;11.702;2023-04-08T12:51:30;55.95;;;50.70;;
62102;SDS011;48077;48.104;11.702;2023-04-08T12:53:54;54.70;;;49.90;;
62102;SDS011;48077;48.104;11.702;2023-04-08T12:56:17;56.40;;;51.15;;
62102;SDS011;48077;48.104;11.702;2023-04-08T12:58:40;57.00;;;51.60;;
62102;SDS011;48077;48.104;11.702;2023-04-08T13:01:04;57.00;;;51.60;;
62102;SDS011;48077;48.104;11.702;2023-04-08T13:03:28;56.13;;;51.13;;
62102;SDS011;48077;48.104;11.702;2023-04-08T13:05:53;58.63;;;53.20;;
62102;SDS011;48077;48.104;11.702;2023-04-08T13:08:20;62.97;;;56.72;;
62102;SDS011;48077;48.104;11.702;2023-04-08T13:10:45;59.30;;;54.08;;
62102;SDS011;48077;48.104;11.702;2023-04-08T13:13:08;58.03;;;52.63;;
62102;SDS011;48077;48.104;11.702;2023-04-08T13:15:31;56.80;;;51.72;;
62102;SDS011;48077;48.104;11.702;2023-04-08T13:17:55;59.33;;;53.67;;
62102;SDS011;48077;48.104;11.702;2023-04-08T13:20:21;60.90;;;55.60;;
62102;SDS011;48077;48.104;11.702;2023-04-08T13:22:48;58.65;;;53.38;;
62102;SDS011;48077;48.104;11.702;2023-04-08T13:25:11;65.97;;;59.72;;
62102;SDS011;48077;48.104;11.702;2023-04-08T13:27:34;65.75;;;59.85;;
62102;SDS011;48077;48.104;11.702;2023-04-08T13:29:58;62.70;;;57.25;;
62102;SDS011;48077;48.104;11.702;2023-04-08T13:32:21;66.32;;;60.47;;
62102;SDS011;48077;48.104;11.702;2023-04-08T13:34:46;68.18;;;61.17;;
62102;SDS011;48077;48.104;11.702;2023-04-08T13:37:10;59.08;;;53.88;;
62102;SDS011;48077;48.104;11.702;2023-04-08T13:39:33;62.20;;;56.78;;
62102;SDS011;48077;48.104;11.702;2023-04-08T13:41:57;61.03;;;55.65;;
62102;SDS011;48077;48.104;11.702;2023-04-08T13:44:20;65.43;;;59.67;;
62102;SDS011;48077;48.104;11.702;2023-04-08T13:46:44;60.65;;;55.53;;
62102;SDS011;48077;48.104;11.702;2023-04-08T13:49:08;60.17;;;55.03;;
62102;SDS011;48077;48.104;11.702;2023-04-08T13:51:31;60.80;;;55.60;;
62102;SDS011;48077;48.104;11.702;2023-04-08T13:53:55;63.22;;;57.60;;
62102;SDS011;48077;48.104;11.702;2023-04-08T13:56:19;59.90;;;54.63;;
62102;SDS011;48077;48.104;11.702;2023-04-08T13:58:43;61.42;;;56.15;;
62102;SDS011;48077;48.104;11.702;2023-04-08T14:01:06;64.15;;;58.15;;
62102;SDS011;48077;48.104;11.702;2023-04-08T14:03:29;63.95;;;58.60;;
62102;SDS011;48077;48.104;11.702;2023-04-08T14:05:53;61.50;;;56.40;;
62102;SDS011;48077;48.104;11.702;2023-04-08T14:08:16;62.38;;;57.10;;
62102;SDS011;48077;48.104;11.702;2023-04-08T14:10:46;63.53;;;57.97;;
62102;SDS011;48077;48.104;11.702;2023-04-08T14:13:10;63.97;;;58.30;;
62102;SDS011;48077;48.104;11.702;2023-04-08T14:15:33;65.25;;;59.58;;
62102;SDS011;48077;48.104;11.702;2023-04-08T14:17:59;63.40;;;57.78;;